| time (UTC) | temp C | wind direction | speed KPH | gust KPH | rain 1hr cm | rain 24hr cm | rain mn cm | humidity % | barometer mb |
| 20260510194328 | 23 | 157 | 3.2 | 6.4 | 0.00 | 0.00 | 1.83 | 95 | 1016.0 |
| 20260510193828 | 23 | 62 | 3.2 | 6.4 | 0.00 | 0.00 | 1.83 | 95 | 1016.0 |
| 20260510193328 | 23 | 191 | 4.8 | 6.4 | 0.03 | 0.00 | 1.80 | 94 | 1016.3 |
| 20260510192827 | 23 | 242 | 3.2 | 6.4 | 0.13 | 0.00 | 1.80 | 94 | 1016.5 |
| 20260510192328 | 23 | 252 | 9.7 | 11.3 | 0.30 | 0.00 | 1.78 | 94 | 1016.5 |
| 20260510191827 | 23 | 213 | 3.2 | 4.8 | 0.33 | 0.00 | 1.75 | 94 | 1016.3 |
| 20260510191327 | 23 | 218 | 3.2 | 6.4 | 0.13 | 0.00 | 1.73 | 94 | 1016.4 |
| 20260510190827 | 24 | 56 | 4.8 | 8.0 | 0.05 | 0.00 | 1.70 | 93 | 1016.1 |
| 20260510190328 | 24 | 50 | 1.6 | 3.2 | 1.50 | 0.00 | 0.99 | 92 | 1016.1 |
| 20260510185827 | 25 | 296 | 6.4 | 12.9 | 5.69 | 0.00 | 0.91 | 90 | 1016.1 |
| 20260510185329 | 26 | 185 | 3.2 | 4.8 | 0.00 | 0.00 | 0.43 | 90 | 1016.1 |
| 20260510184827 | 26 | 221 | 3.2 | 6.4 | 0.00 | 0.00 | 0.43 | 89 | 1015.9 |
| 20260510184328 | 26 | 147 | 1.6 | 4.8 | 0.00 | 0.00 | 0.43 | 89 | 1015.5 |
| 20260510183827 | 26 | 116 | 3.2 | 8.0 | 0.00 | 0.00 | 0.43 | 88 | 1015.7 |
| 20260510183327 | 26 | 104 | 4.8 | 8.0 | 0.00 | 0.00 | 0.43 | 89 | 1015.7 |
| 20260510182827 | 26 | 117 | 4.8 | 8.0 | 0.00 | 0.00 | 0.43 | 89 | 1015.9 |
| 20260510182328 | 26 | 113 | 3.2 | 6.4 | 0.00 | 0.00 | 0.33 | 89 | 1016.0 |
| 20260510181827 | 26 | 114 | 4.8 | 11.3 | 0.00 | 0.00 | 0.33 | 90 | 1016.0 |
| 20260510181327 | 26 | 114 | 3.2 | 6.4 | 0.00 | 0.00 | 0.33 | 89 | 1015.9 |
| 20260510180829 | 26 | 144 | 3.2 | 8.0 | 0.00 | 0.00 | 0.33 | 90 | 1015.8 |
| 20260510180328 | 26 | 107 | 3.2 | 6.4 | 0.00 | 0.00 | 0.30 | 90 | 1015.8 |
| 20260510175828 | 25 | 100 | 4.8 | 11.3 | 0.00 | 0.00 | 0.30 | 91 | 1016.0 |
| 20260510175328 | 24 | 121 | 4.8 | 8.0 | 0.00 | 0.00 | 0.30 | 91 | 1016.0 |
| 20260510174828 | 25 | 273 | 1.6 | 4.8 | 1.42 | 0.00 | 0.30 | 89 | 1016.2 |
| 20260510174330 | 25 | 294 | 6.4 | 11.3 | 2.34 | 0.00 | 0.23 | 88 | 1016.4 |
| 20260510173827 | 26 | 302 | 6.4 | 8.0 | 0.66 | 0.00 | 0.13 | 86 | 1016.3 |
| 20260510173327 | 27 | 280 | 8.0 | 12.9 | 0.61 | 0.00 | 0.05 | 79 | 1016.3 |
| 20260510172827 | 28 | 280 | 6.4 | 8.0 | 0.08 | 0.00 | 0.00 | 72 | 1016.3 |
| 20260510172327 | 29 | 303 | 4.8 | 8.0 | 0.03 | 0.00 | 0.00 | 61 | 1016.2 |
| 20260510171827 | 29 | 293 | 4.8 | 6.4 | 0.00 | 0.00 | 0.00 | 61 | 1016.1 |
| 20260510171327 | 29 | 265 | 3.2 | 6.4 | 0.00 | 0.00 | 0.00 | 61 | 1016.0 |
| 20260510170827 | 29 | 312 | 3.2 | 6.4 | 0.00 | 0.00 | 0.00 | 59 | 1016.1 |
| 20260510170327 | 30 | 303 | 3.2 | 4.8 | 0.00 | 0.00 | 0.00 | 57 | 1016.2 |
| 20260510165827 | 30 | 307 | 1.6 | 3.2 | 0.00 | 0.00 | 0.00 | 62 | 1016.2 |
| 20260510165327 | 30 | 284 | 4.8 | 6.4 | 0.00 | 0.00 | 0.00 | 63 | 1016.3 |
| 20260510164827 | 30 | 303 | 3.2 | 6.4 | 0.00 | 0.00 | 0.00 | 62 | 1016.4 |
| 20260510164327 | 29 | 0 | 0.0 | 0.0 | 0.00 | 0.00 | 0.00 | 65 | 1016.4 |
| 20260510163828 | 29 | 250 | 3.2 | 4.8 | 0.00 | 0.00 | 0.00 | 66 | 1016.6 |
| 20260510163327 | 28 | 313 | 1.6 | 3.2 | 0.00 | 0.00 | 0.00 | 65 | 1016.6 |
| 20260510162827 | 28 | 288 | 3.2 | 4.8 | 0.00 | 0.00 | 0.00 | 68 | 1016.6 |
| 20260510162329 | 28 | 328 | 3.2 | 4.8 | 0.00 | 0.00 | 0.00 | 66 | 1016.6 |
| 20260510161827 | 28 | 268 | 6.4 | 9.7 | 0.00 | 0.00 | 0.00 | 66 | 1016.7 |
| 20260510161327 | 28 | 281 | 1.6 | 3.2 | 0.00 | 0.00 | 0.00 | 66 | 1016.8 |
| 20260510160827 | 28 | 163 | 3.2 | 6.4 | 0.00 | 0.00 | 0.00 | 66 | 1016.8 |
| 20260510160327 | 28 | 178 | 3.2 | 9.7 | 0.00 | 0.00 | 0.00 | 70 | 1016.8 |
| 20260510155828 | 28 | 260 | 3.2 | 6.4 | 0.00 | 0.00 | 0.00 | 69 | 1016.8 |
| 20260510155327 | 28 | 312 | 3.2 | 4.8 | 0.00 | 0.00 | 0.00 | 69 | 1016.8 |
| 20260510154828 | 28 | 302 | 6.4 | 9.7 | 0.00 | 0.00 | 0.00 | 69 | 1016.8 |
| 20260510154327 | 28 | 239 | 6.4 | 8.0 | 0.00 | 0.00 | 0.00 | 69 | 1016.8 |
| 20260510153827 | 28 | 307 | 1.6 | 3.2 | 0.00 | 0.00 | 0.00 | 68 | 1016.9 |
| 20260510153327 | 28 | 211 | 1.6 | 3.2 | 0.00 | 0.00 | 0.00 | 69 | 1016.8 |
| 20260510152827 | 28 | 216 | 1.6 | 3.2 | 0.00 | 0.00 | 0.00 | 71 | 1016.8 |
| 20260510152327 | 28 | 281 | 3.2 | 4.8 | 0.00 | 0.00 | 0.00 | 71 | 1016.8 |
| 20260510151827 | 28 | 291 | 3.2 | 6.4 | 0.00 | 0.00 | 0.00 | 70 | 1016.7 |
| 20260510151328 | 28 | 294 | 3.2 | 6.4 | 0.00 | 0.00 | 0.00 | 72 | 1016.8 |
| 20260510150828 | 28 | 173 | 4.8 | 9.7 | 0.00 | 0.00 | 0.00 | 69 | 1016.7 |
| 20260510150327 | 28 | 285 | 3.2 | 3.2 | 0.00 | 0.00 | 0.00 | 71 | 1016.7 |
| 20260510145827 | 28 | 265 | 3.2 | 6.4 | 0.00 | 0.00 | 0.00 | 70 | 1016.6 |
| 20260510145327 | 28 | 272 | 1.6 | 3.2 | 0.00 | 0.00 | 0.00 | 71 | 1016.6 |
| 20260510144827 | 27 | 274 | 3.2 | 4.8 | 0.00 | 0.00 | 0.00 | 72 | 1016.6 |
| 20260510144328 | 27 | 211 | 3.2 | 6.4 | 0.00 | 0.00 | 0.00 | 73 | 1016.6 |
| 20260510143828 | 27 | 284 | 4.8 | 6.4 | 0.00 | 0.00 | 0.00 | 74 | 1016.6 |
| 20260510143328 | 27 | 290 | 6.4 | 11.3 | 0.00 | 0.00 | 0.00 | 74 | 1016.6 |
| 20260510142827 | 27 | 264 | 1.6 | 3.2 | 0.00 | 0.00 | 0.00 | 75 | 1016.6 |
| 20260510142329 | 27 | 182 | 4.8 | 11.3 | 0.00 | 0.00 | 0.00 | 73 | 1016.6 |
| 20260510141828 | 27 | 191 | 3.2 | 6.4 | 0.00 | 0.00 | 0.00 | 76 | 1016.6 |
| 20260510141327 | 26 | 225 | 3.2 | 8.0 | 0.00 | 0.00 | 0.00 | 79 | 1016.5 |
| 20260510140827 | 26 | 274 | 3.2 | 6.4 | 0.00 | 0.00 | 0.00 | 81 | 1016.4 |
| 20260510140328 | 26 | 287 | 4.8 | 6.4 | 0.00 | 0.00 | 0.00 | 83 | 1016.3 |
| 20260510135828 | 26 | 286 | 3.2 | 4.8 | 0.00 | 0.00 | 0.00 | 86 | 1016.2 |
| 20260510135328 | 26 | 176 | 3.2 | 6.4 | 0.00 | 0.00 | 0.00 | 87 | 1016.2 |
| 20260510134828 | 25 | 187 | 4.8 | 6.4 | 0.00 | 0.00 | 0.00 | 88 | 1016.2 |
| 20260510134328 | 25 | 182 | 3.2 | 6.4 | 0.00 | 0.00 | 0.00 | 90 | 1016.2 |
| 20260510133828 | 25 | 250 | 0.0 | 3.2 | 0.00 | 0.00 | 0.00 | 91 | 1016.2 |
| 20260510133327 | 25 | 201 | 4.8 | 6.4 | 0.00 | 0.00 | 0.00 | 92 | 1016.2 |
| 20260510132827 | 25 | 225 | 1.6 | 6.4 | 0.00 | 0.00 | 0.00 | 94 | 1016.2 |
| 20260510132327 | 25 | 265 | 3.2 | 6.4 | 0.00 | 0.00 | 0.00 | 95 | 1016.1 |
| 20260510131830 | 24 | 287 | 4.8 | 6.4 | 0.00 | 0.00 | 0.00 | 96 | 1016.1 |
| 20260510131327 | 24 | 270 | 1.6 | 3.2 | 0.00 | 0.00 | 0.00 | 97 | 1016.1 |
| 20260510130828 | 24 | 209 | 3.2 | 4.8 | 0.00 | 0.00 | 0.00 | 97 | 1016.0 |
| 20260510130330 | 24 | 0 | 0.0 | 0.0 | 0.00 | 0.00 | 0.00 | 98 | 1016.0 |
| 20260510125827 | 24 | 240 | 1.6 | 3.2 | 0.00 | 0.00 | 0.00 | 99 | 1016.0 |
| 20260510125328 | 23 | 238 | 0.0 | 0.0 | 0.00 | 0.00 | 0.00 | 99 | 1015.9 |
| 20260510124827 | 23 | 283 | 3.2 | 4.8 | 0.00 | 0.00 | 0.00 | 99 | 1016.0 |
| 20260510124327 | 23 | 281 | 1.6 | 3.2 | 0.00 | 0.00 | 0.00 | 100 | 1015.9 |
| 20260510123827 | 23 | 300 | 0.0 | 0.0 | 0.00 | 0.00 | 0.00 | 100 | 1015.9 |
| 20260510123327 | 23 | 132 | 0.0 | 1.6 | 0.00 | 0.00 | 0.00 | 100 | 1015.7 |
| 20260510122827 | 23 | 137 | 3.2 | 4.8 | 0.00 | 0.00 | 0.00 | 99 | 1015.7 |
| 20260510122327 | 23 | 147 | 1.6 | 3.2 | 0.00 | 0.00 | 0.00 | 100 | 1015.6 |
| 20260510121827 | 23 | 278 | 1.6 | 3.2 | 0.00 | 0.00 | 0.00 | 100 | 1015.6 |
| 20260510121327 | 23 | 131 | 1.6 | 3.2 | 0.00 | 0.00 | 0.00 | 100 | 1015.4 |
| 20260510120827 | 22 | 253 | 0.0 | 0.0 | 0.00 | 0.00 | 0.00 | 100 | 1015.4 |
| 20260510120327 | 22 | 240 | 0.0 | 1.6 | 0.00 | 0.00 | 0.00 | 100 | 1015.3 |
| 20260510115827 | 22 | 0 | 0.0 | 0.0 | 0.00 | 0.00 | 0.00 | 100 | 1015.3 |
| 20260510115329 | 22 | 266 | 0.0 | 0.0 | 0.00 | 0.00 | 0.00 | 100 | 1015.2 |
| 20260510114827 | 22 | 232 | 0.0 | 1.6 | 0.00 | 0.00 | 0.00 | 100 | 1015.2 |
| 20260510114327 | 22 | 0 | 0.0 | 0.0 | 0.00 | 0.00 | 0.00 | 100 | 1015.1 |
| 20260510113827 | 22 | 220 | 0.0 | 0.0 | 0.00 | 0.00 | 0.00 | 100 | 1015.1 |
| 20260510113327 | 22 | 163 | 1.6 | 3.2 | 0.00 | 0.00 | 0.00 | 100 | 1015.0 |
| 20260510112828 | 22 | 137 | 0.0 | 1.6 | 0.00 | 0.00 | 0.00 | 100 | 1014.9 |
| 20260510112327 | 22 | 143 | 1.6 | 3.2 | 0.00 | 0.00 | 0.00 | 100 | 1014.8 |
| 20260510111827 | 22 | 289 | 0.0 | 0.0 | 0.00 | 0.00 | 0.00 | 100 | 1014.8 |
| 20260510111327 | 22 | 278 | 1.6 | 3.2 | 0.00 | 0.00 | 0.00 | 99 | 1014.8 |
| 20260510110827 | 22 | 200 | 0.0 | 1.6 | 0.00 | 0.00 | 0.00 | 100 | 1014.8 |
| 20260510110327 | 22 | 0 | 0.0 | 0.0 | 0.00 | 0.00 | 0.00 | 99 | 1014.7 |
| 20260510105827 | 22 | 0 | 0.0 | 0.0 | 0.00 | 0.00 | 0.00 | 100 | 1014.7 |
| 20260510105327 | 22 | 231 | 0.0 | 1.6 | 0.00 | 0.00 | 0.00 | 99 | 1014.6 |
| 20260510104827 | 22 | 162 | 0.0 | 0.0 | 0.00 | 0.00 | 0.00 | 99 | 1014.5 |
| 20260510104327 | 22 | 0 | 0.0 | 0.0 | 0.00 | 0.00 | 0.00 | 99 | 1014.4 |
| 20260510103828 | 22 | 0 | 0.0 | 0.0 | 0.00 | 0.00 | 0.00 | 99 | 1014.3 |
| 20260510103328 | 22 | 255 | 0.0 | 1.6 | 0.00 | 0.00 | 0.00 | 99 | 1014.2 |
| 20260510102827 | 22 | 0 | 0.0 | 0.0 | 0.00 | 0.00 | 0.00 | 99 | 1014.2 |
| 20260510102327 | 22 | 180 | 0.0 | 1.6 | 0.00 | 0.00 | 0.00 | 99 | 1014.1 |
| 20260510101827 | 22 | 0 | 0.0 | 0.0 | 0.00 | 0.00 | 0.00 | 99 | 1014.0 |
| 20260510101327 | 22 | 236 | 3.2 | 3.2 | 0.00 | 0.00 | 0.00 | 99 | 1014.0 |
| 20260510100828 | 22 | 315 | 0.0 | 0.0 | 0.00 | 0.00 | 0.00 | 99 | 1013.9 |
| 20260510100327 | 22 | 265 | 0.0 | 1.6 | 0.00 | 0.00 | 0.00 | 99 | 1013.9 |
| 20260510095827 | 22 | 286 | 0.0 | 0.0 | 0.00 | 0.00 | 0.00 | 99 | 1013.8 |
| 20260510095328 | 22 | 312 | 0.0 | 1.6 | 0.00 | 0.00 | 0.00 | 99 | 1013.7 |
| 20260510094827 | 22 | 184 | 0.0 | 1.6 | 0.00 | 0.00 | 0.00 | 99 | 1013.6 |
| 20260510094327 | 22 | 163 | 1.6 | 3.2 | 0.00 | 0.00 | 0.00 | 99 | 1013.6 |
| 20260510093827 | 22 | 163 | 1.6 | 3.2 | 0.00 | 0.00 | 0.00 | 99 | 1013.6 |
| 20260510093328 | 22 | 170 | 3.2 | 4.8 | 0.00 | 0.00 | 0.00 | 99 | 1013.5 |
| 20260510092827 | 22 | 133 | 1.6 | 3.2 | 0.00 | 0.00 | 0.00 | 99 | 1013.6 |
| 20260510092327 | 23 | 158 | 1.6 | 3.2 | 0.00 | 0.00 | 0.00 | 99 | 1013.6 |
| 20260510091827 | 23 | 215 | 0.0 | 1.6 | 0.00 | 0.00 | 0.00 | 99 | 1013.6 |
| 20260510091329 | 23 | 253 | 0.0 | 1.6 | 0.00 | 0.00 | 0.00 | 99 | 1013.6 |
| 20260510090827 | 23 | 279 | 0.0 | 3.2 | 0.00 | 0.00 | 0.00 | 99 | 1013.5 |
| 20260510090327 | 23 | 230 | 0.0 | 1.6 | 0.00 | 0.00 | 0.00 | 99 | 1013.4 |
| 20260510085827 | 23 | 184 | 1.6 | 3.2 | 0.00 | 0.00 | 0.00 | 99 | 1013.4 |
| 20260510085327 | 23 | 158 | 1.6 | 3.2 | 0.00 | 0.00 | 0.00 | 99 | 1013.3 |
| 20260510084828 | 23 | 3 | 1.6 | 4.8 | 0.00 | 0.00 | 0.00 | 99 | 1013.3 |
| 20260510084327 | 23 | 196 | 1.6 | 3.2 | 0.00 | 0.00 | 0.00 | 99 | 1013.3 |
| 20260510083827 | 23 | 172 | 3.2 | 4.8 | 0.00 | 0.00 | 0.00 | 99 | 1013.2 |
| 20260510083327 | 23 | 177 | 1.6 | 3.2 | 0.00 | 0.00 | 0.00 | 99 | 1013.2 |
| 20260510082827 | 23 | 165 | 3.2 | 4.8 | 0.00 | 0.00 | 0.00 | 99 | 1013.1 |
| 20260510082327 | 23 | 168 | 4.8 | 6.4 | 0.00 | 0.00 | 0.00 | 99 | 1013.1 |
| 20260510081828 | 23 | 153 | 4.8 | 6.4 | 0.00 | 0.00 | 0.00 | 99 | 1013.2 |
| 20260510081327 | 23 | 160 | 3.2 | 4.8 | 0.00 | 0.00 | 0.00 | 99 | 1013.2 |
| 20260510080827 | 23 | 141 | 0.0 | 1.6 | 0.00 | 0.00 | 0.00 | 99 | 1013.3 |
| 20260510080328 | 23 | 164 | 1.6 | 3.2 | 0.00 | 0.00 | 0.00 | 99 | 1013.4 |
| 20260510075827 | 23 | 173 | 1.6 | 3.2 | 0.00 | 0.00 | 0.00 | 99 | 1013.4 |
| 20260510075327 | 23 | 152 | 1.6 | 3.2 | 0.00 | 0.00 | 0.00 | 99 | 1013.3 |
| 20260510074827 | 23 | 177 | 1.6 | 3.2 | 0.00 | 0.00 | 0.00 | 99 | 1013.3 |
| 20260510074327 | 23 | 162 | 1.6 | 3.2 | 0.00 | 0.00 | 0.00 | 99 | 1013.3 |
| 20260510073827 | 23 | 188 | 1.6 | 3.2 | 0.00 | 0.00 | 0.00 | 99 | 1013.4 |
| 20260510073328 | 23 | 185 | 3.2 | 4.8 | 0.00 | 0.00 | 0.00 | 99 | 1013.3 |
| 20260510072827 | 23 | 150 | 1.6 | 3.2 | 0.00 | 0.00 | 0.00 | 99 | 1013.3 |
| 20260510072327 | 23 | 169 | 3.2 | 4.8 | 0.00 | 0.00 | 0.00 | 99 | 1013.3 |
| 20260510071827 | 23 | 167 | 4.8 | 6.4 | 0.00 | 0.00 | 0.00 | 99 | 1013.3 |
| 20260510071327 | 23 | 145 | 3.2 | 4.8 | 0.00 | 0.00 | 0.00 | 99 | 1013.4 |
| 20260510070827 | 23 | 161 | 3.2 | 4.8 | 0.00 | 0.00 | 0.00 | 99 | 1013.5 |
| 20260510070327 | 23 | 166 | 3.2 | 3.2 | 0.00 | 0.00 | 0.00 | 98 | 1013.6 |
| 20260510065827 | 23 | 172 | 1.6 | 3.2 | 0.00 | 0.00 | 0.00 | 98 | 1013.6 |
| 20260510065327 | 23 | 160 | 1.6 | 3.2 | 0.00 | 0.00 | 0.00 | 98 | 1013.7 |
| 20260510064827 | 23 | 134 | 1.6 | 3.2 | 0.00 | 0.00 | 0.00 | 98 | 1013.8 |
| 20260510064327 | 23 | 263 | 1.6 | 3.2 | 0.00 | 0.00 | 0.00 | 98 | 1013.9 |
| 20260510063827 | 23 | 240 | 0.0 | 1.6 | 0.00 | 0.00 | 0.00 | 98 | 1013.9 |
| 20260510063327 | 23 | 192 | 1.6 | 3.2 | 0.00 | 0.00 | 0.00 | 98 | 1013.9 |
| 20260510062828 | 23 | 72 | 0.0 | 1.6 | 0.00 | 0.00 | 0.00 | 98 | 1013.9 |
| 20260510062327 | 23 | 283 | 1.6 | 1.6 | 0.00 | 0.00 | 0.00 | 98 | 1014.0 |
| 20260510061828 | 23 | 204 | 0.0 | 3.2 | 0.00 | 0.00 | 0.00 | 98 | 1014.1 |
| 20260510061327 | 23 | 326 | 0.0 | 1.6 | 0.00 | 0.00 | 0.00 | 98 | 1014.2 |
| 20260510060827 | 23 | 226 | 1.6 | 3.2 | 0.00 | 0.00 | 0.00 | 98 | 1014.3 |
| 20260510060327 | 23 | 111 | 1.6 | 1.6 | 0.00 | 0.00 | 0.00 | 98 | 1014.3 |
| 20260510055827 | 23 | 128 | 0.0 | 3.2 | 0.00 | 0.00 | 0.00 | 98 | 1014.3 |
| 20260510055328 | 23 | 165 | 0.0 | 1.6 | 0.00 | 0.00 | 0.00 | 98 | 1014.4 |
| 20260510054827 | 23 | 221 | 1.6 | 6.4 | 0.00 | 0.00 | 0.00 | 98 | 1014.4 |
| 20260510054328 | 23 | 328 | 0.0 | 1.6 | 0.00 | 0.00 | 0.00 | 98 | 1014.5 |
| 20260510053827 | 23 | 183 | 0.0 | 1.6 | 0.00 | 0.00 | 0.00 | 98 | 1014.5 |
| 20260510053327 | 23 | 126 | 1.6 | 3.2 | 0.00 | 0.00 | 0.00 | 98 | 1014.6 |
| 20260510052827 | 23 | 93 | 0.0 | 1.6 | 0.00 | 0.00 | 0.00 | 98 | 1014.6 |
| 20260510052327 | 23 | 244 | 1.6 | 3.2 | 0.00 | 0.00 | 0.00 | 98 | 1014.7 |
| 20260510051827 | 23 | 20 | 0.0 | 1.6 | 0.00 | 0.00 | 0.00 | 98 | 1014.7 |
| 20260510051327 | 23 | 291 | 0.0 | 1.6 | 0.00 | 0.00 | 0.00 | 98 | 1014.8 |
| 20260510050827 | 23 | 314 | 1.6 | 3.2 | 0.00 | 0.00 | 0.00 | 98 | 1014.9 |
| 20260510050327 | 23 | 225 | 0.0 | 3.2 | 0.00 | 0.00 | 0.00 | 98 | 1014.9 |
| 20260510045828 | 23 | 259 | 0.0 | 1.6 | 0.00 | 0.00 | 0.00 | 98 | 1014.9 |
| 20260510045327 | 23 | 282 | 0.0 | 1.6 | 0.00 | 0.00 | 0.00 | 98 | 1014.9 |
| 20260510044828 | 23 | 255 | 0.0 | 3.2 | 0.00 | 0.00 | 0.00 | 97 | 1014.9 |
| 20260510044327 | 23 | 170 | 1.6 | 4.8 | 0.00 | 0.00 | 0.00 | 98 | 1014.9 |
| 20260510043827 | 23 | 149 | 3.2 | 4.8 | 0.00 | 0.00 | 0.00 | 98 | 1014.8 |
| 20260510043328 | 23 | 193 | 3.2 | 3.2 | 0.00 | 0.00 | 0.00 | 98 | 1014.9 |
| 20260510042827 | 23 | 269 | 0.0 | 1.6 | 0.00 | 0.00 | 0.00 | 97 | 1015.0 |
| 20260510042327 | 23 | 165 | 0.0 | 1.6 | 0.00 | 0.00 | 0.00 | 97 | 1014.9 |
| 20260510041827 | 23 | 150 | 1.6 | 3.2 | 0.00 | 0.00 | 0.00 | 97 | 1015.0 |
| 20260510041327 | 23 | 171 | 1.6 | 3.2 | 0.00 | 0.00 | 0.00 | 97 | 1015.0 |
| 20260510040827 | 23 | 128 | 1.6 | 3.2 | 0.00 | 0.00 | 0.00 | 97 | 1015.0 |
| 20260510040327 | 23 | 119 | 1.6 | 1.6 | 0.00 | 0.00 | 0.00 | 97 | 1015.0 |
| 20260510035827 | 23 | 145 | 1.6 | 3.2 | 0.00 | 0.00 | 0.51 | 98 | 1015.1 |
| 20260510035328 | 23 | 343 | 0.0 | 1.6 | 0.00 | 0.00 | 0.51 | 97 | 1015.1 |
| 20260510034827 | 23 | 125 | 1.6 | 3.2 | 0.00 | 0.00 | 0.51 | 97 | 1015.0 |
| 20260510034328 | 23 | 51 | 0.0 | 1.6 | 0.00 | 0.00 | 0.51 | 97 | 1015.0 |
| 20260510033827 | 23 | 108 | 0.0 | 1.6 | 0.00 | 0.00 | 0.51 | 97 | 1015.0 |
| 20260510033327 | 23 | 119 | 1.6 | 1.6 | 0.00 | 0.00 | 0.51 | 97 | 1015.0 |
| 20260510032827 | 23 | 86 | 0.0 | 1.6 | 0.00 | 0.00 | 0.51 | 98 | 1014.9 |
| 20260510032328 | 23 | 140 | 1.6 | 3.2 | 0.00 | 0.00 | 0.51 | 98 | 1015.0 |
| 20260510031828 | 23 | 318 | 0.0 | 1.6 | 0.00 | 0.00 | 0.51 | 97 | 1015.0 |
| 20260510031327 | 23 | 342 | 0.0 | 1.6 | 0.00 | 0.00 | 0.51 | 97 | 1015.0 |
| 20260510030828 | 23 | 66 | 0.0 | 1.6 | 0.00 | 0.00 | 0.51 | 97 | 1015.0 |
| 20260510030327 | 23 | 117 | 0.0 | 3.2 | 0.00 | 0.00 | 0.51 | 97 | 1015.0 |
| 20260510025827 | 23 | 124 | 0.0 | 3.2 | 0.00 | 0.00 | 0.51 | 97 | 1015.0 |
| 20260510025328 | 23 | 104 | 1.6 | 3.2 | 0.00 | 0.00 | 0.51 | 97 | 1014.9 |
| 20260510024827 | 23 | 92 | 1.6 | 3.2 | 0.00 | 0.00 | 0.51 | 97 | 1014.8 |
| 20260510024327 | 23 | 87 | 1.6 | 3.2 | 0.00 | 0.00 | 0.51 | 97 | 1014.8 |
| 20260510023827 | 23 | 107 | 1.6 | 3.2 | 0.00 | 0.00 | 0.51 | 97 | 1014.7 |
| 20260510023327 | 23 | 109 | 1.6 | 3.2 | 0.00 | 0.00 | 0.51 | 97 | 1014.7 |
| 20260510022827 | 23 | 90 | 0.0 | 1.6 | 0.00 | 0.00 | 0.51 | 97 | 1014.8 |
| 20260510022329 | 23 | 145 | 1.6 | 3.2 | 0.00 | 0.00 | 0.51 | 97 | 1014.9 |
| 20260510021828 | 23 | 107 | 1.6 | 3.2 | 0.00 | 0.00 | 0.51 | 97 | 1014.7 |
| 20260510021327 | 23 | 155 | 0.0 | 3.2 | 0.00 | 0.00 | 0.51 | 97 | 1014.9 |
| 20260510020827 | 23 | 87 | 0.0 | 1.6 | 0.00 | 0.00 | 0.51 | 97 | 1014.8 |
| 20260510020327 | 23 | 211 | 1.6 | 3.2 | 0.00 | 0.00 | 0.51 | 97 | 1014.8 |
| 20260510015828 | 23 | 119 | 1.6 | 3.2 | 0.00 | 0.00 | 0.51 | 97 | 1014.5 |
| 20260510015327 | 23 | 145 | 1.6 | 3.2 | 0.00 | 0.00 | 0.51 | 97 | 1014.5 |
| 20260510014828 | 23 | 170 | 1.6 | 3.2 | 0.00 | 0.00 | 0.51 | 97 | 1014.5 |
| 20260510014327 | 23 | 103 | 0.0 | 3.2 | 0.00 | 0.00 | 0.51 | 97 | 1014.5 |
| 20260510013827 | 23 | 114 | 1.6 | 3.2 | 0.00 | 0.00 | 0.51 | 97 | 1014.3 |
| 20260510013327 | 23 | 349 | 0.0 | 1.6 | 0.00 | 0.00 | 0.51 | 96 | 1014.6 |
| 20260510012827 | 23 | 358 | 0.0 | 0.0 | 0.00 | 0.00 | 0.51 | 96 | 1014.5 |
| 20260510012329 | 23 | 112 | 1.6 | 3.2 | 0.00 | 0.00 | 0.51 | 96 | 1014.4 |
| 20260510011827 | 23 | 163 | 1.6 | 3.2 | 0.00 | 0.00 | 0.51 | 96 | 1014.3 |
| 20260510011327 | 23 | 82 | 1.6 | 3.2 | 0.00 | 0.00 | 0.51 | 96 | 1014.2 |
| 20260510010828 | 23 | 98 | 0.0 | 1.6 | 0.00 | 0.00 | 0.51 | 96 | 1014.3 |
| 20260510010328 | 23 | 110 | 1.6 | 1.6 | 0.00 | 0.00 | 0.51 | 96 | 1014.4 |
| 20260510005827 | 23 | 318 | 1.6 | 3.2 | 0.00 | 0.00 | 0.51 | 96 | 1014.4 |
| 20260510005327 | 23 | 312 | 1.6 | 1.6 | 0.00 | 0.00 | 0.51 | 96 | 1014.2 |
| 20260510004827 | 23 | 307 | 0.0 | 1.6 | 0.00 | 0.00 | 0.51 | 96 | 1014.1 |
| 20260510004327 | 23 | 273 | 0.0 | 1.6 | 0.00 | 0.00 | 0.51 | 95 | 1014.0 |
| 20260510003827 | 23 | 110 | 0.0 | 1.6 | 0.00 | 0.00 | 0.51 | 95 | 1013.9 |
| 20260510003327 | 23 | 304 | 1.6 | 1.6 | 0.00 | 0.00 | 0.51 | 95 | 1014.0 |
| 20260510002827 | 23 | 252 | 1.6 | 1.6 | 0.00 | 0.00 | 0.51 | 95 | 1013.8 |
| 20260510002327 | 23 | 317 | 0.0 | 1.6 | 0.00 | 0.00 | 0.51 | 95 | 1013.8 |
| 20260510001827 | 23 | 125 | 1.6 | 1.6 | 0.00 | 0.00 | 0.51 | 95 | 1013.8 |
| 20260510001329 | 23 | 140 | 0.0 | 1.6 | 0.00 | 0.00 | 0.51 | 95 | 1013.7 |
| 20260510000827 | 23 | 292 | 0.0 | 1.6 | 0.00 | 0.00 | 0.51 | 95 | 1013.7 |
| 20260510000328 | 23 | 132 | 0.0 | 1.6 | 0.00 | 0.00 | 0.51 | 95 | 1013.6 |
| 20260509235827 | 23 | 10 | 0.0 | 3.2 | 0.00 | 0.00 | 0.51 | 95 | 1013.5 |
| 20260509235327 | 23 | 87 | 1.6 | 3.2 | 0.00 | 0.00 | 0.51 | 95 | 1013.5 |
| 20260509234827 | 23 | 69 | 1.6 | 4.8 | 0.00 | 0.00 | 0.51 | 95 | 1013.3 |
| 20260509234327 | 23 | 93 | 3.2 | 6.4 | 0.00 | 0.00 | 0.51 | 95 | 1013.3 |
| 20260509233827 | 24 | 93 | 1.6 | 4.8 | 0.00 | 0.00 | 0.51 | 95 | 1013.3 |
| 20260509233327 | 24 | 80 | 1.6 | 3.2 | 0.00 | 0.00 | 0.51 | 95 | 1013.2 |
| 20260509232827 | 24 | 202 | 1.6 | 3.2 | 0.00 | 0.00 | 0.51 | 95 | 1013.2 |
| 20260509232328 | 24 | 106 | 1.6 | 3.2 | 0.00 | 0.00 | 0.56 | 95 | 1013.2 |
| 20260509231827 | 24 | 155 | 1.6 | 4.8 | 0.00 | 0.00 | 0.56 | 95 | 1013.1 |
| 20260509231327 | 24 | 307 | 1.6 | 3.2 | 0.00 | 0.00 | 0.56 | 95 | 1013.1 |
| 20260509230827 | 24 | 280 | 0.0 | 3.2 | 0.00 | 0.00 | 0.56 | 95 | 1013.0 |
| 20260509230327 | 24 | 90 | 1.6 | 3.2 | 0.00 | 0.00 | 0.56 | 95 | 1013.0 |
| 20260509225829 | 24 | 162 | 1.6 | 3.2 | 0.00 | 0.00 | 0.53 | 95 | 1013.0 |
| 20260509225328 | 24 | 340 | 1.6 | 1.6 | 0.00 | 0.00 | 0.53 | 95 | 1012.9 |
| 20260509224827 | 24 | 149 | 1.6 | 3.2 | 0.00 | 0.00 | 0.51 | 95 | 1012.9 |
| 20260509224327 | 24 | 221 | 3.2 | 4.8 | 0.05 | 0.00 | 0.51 | 95 | 1012.8 |
| 20260509223827 | 24 | 72 | 0.0 | 3.2 | 0.13 | 0.00 | 0.48 | 94 | 1013.0 |
| 20260509223328 | 24 | 75 | 1.6 | 3.2 | 0.81 | 0.00 | 0.48 | 94 | 1013.2 |
| 20260509222827 | 24 | 200 | 4.8 | 9.7 | 0.38 | 0.00 | 0.25 | 93 | 1013.3 |
| 20260509222327 | 24 | 221 | 3.2 | 6.4 | 0.00 | 0.00 | 0.25 | 93 | 1013.3 |
| 20260509221828 | 24 | 227 | 1.6 | 4.8 | 0.00 | 0.00 | 0.25 | 93 | 1013.1 |
| 20260509221327 | 24 | 241 | 1.6 | 3.2 | 0.00 | 0.00 | 0.25 | 93 | 1012.9 |
| 20260509220827 | 24 | 282 | 1.6 | 3.2 | 0.00 | 0.00 | 0.25 | 93 | 1012.9 |
| 20260509220327 | 24 | 196 | 1.6 | 3.2 | 0.00 | 0.00 | 0.25 | 93 | 1012.8 |
| 20260509215828 | 24 | 265 | 1.6 | 3.2 | 0.00 | 0.00 | 0.25 | 92 | 1012.8 |
| 20260509215327 | 24 | 238 | 1.6 | 3.2 | 0.00 | 0.00 | 0.25 | 92 | 1012.8 |
| 20260509214827 | 24 | 217 | 1.6 | 3.2 | 0.00 | 0.00 | 0.23 | 91 | 1012.7 |
| 20260509214327 | 24 | 249 | 1.6 | 3.2 | 0.00 | 0.00 | 0.23 | 91 | 1012.8 |
| 20260509213827 | 24 | 214 | 1.6 | 3.2 | 0.00 | 0.00 | 0.23 | 90 | 1012.7 |
| 20260509213327 | 24 | 159 | 1.6 | 4.8 | 0.08 | 0.00 | 0.23 | 89 | 1012.7 |
| 20260509212827 | 24 | 157 | 1.6 | 3.2 | 1.09 | 0.00 | 0.18 | 88 | 1012.7 |
| 20260509212327 | 24 | 127 | 1.6 | 3.2 | 0.00 | 0.00 | 0.10 | 87 | 1012.8 |
| 20260509211827 | 24 | 314 | 1.6 | 3.2 | 0.00 | 0.00 | 0.10 | 86 | 1012.8 |
| 20260509211327 | 24 | 113 | 0.0 | 3.2 | 0.00 | 0.00 | 0.10 | 85 | 1012.8 |
| 20260509210827 | 24 | 63 | 1.6 | 3.2 | 0.00 | 0.00 | 0.10 | 84 | 1012.6 |
| 20260509210329 | 24 | 74 | 1.6 | 4.8 | 0.00 | 0.00 | 0.10 | 83 | 1012.5 |
| 20260509205827 | 24 | 178 | 0.0 | 1.6 | 0.00 | 0.00 | 0.10 | 83 | 1012.4 |
| 20260509205327 | 24 | 308 | 1.6 | 3.2 | 0.00 | 0.00 | 0.10 | 84 | 1012.4 |
| 20260509204828 | 24 | 308 | 1.6 | 3.2 | 0.00 | 0.00 | 0.10 | 83 | 1012.4 |
| 20260509204327 | 24 | 250 | 1.6 | 3.2 | 0.00 | 0.00 | 0.10 | 85 | 1012.5 |
| 20260509203827 | 24 | 342 | 1.6 | 3.2 | 0.00 | 0.00 | 0.10 | 86 | 1012.5 |
| 20260509203327 | 24 | 331 | 1.6 | 1.6 | 0.00 | 0.00 | 0.20 | 85 | 1012.5 |
| 20260509202829 | 25 | 295 | 1.6 | 4.8 | 0.00 | 0.00 | 0.20 | 84 | 1012.6 |
| 20260509202327 | 25 | 270 | 1.6 | 3.2 | 0.74 | 0.00 | 0.20 | 82 | 1012.6 |
| 20260509201830 | 25 | 183 | 3.2 | 6.4 | 0.30 | 0.00 | 0.00 | 78 | 1012.7 |
| 20260509201328 | 26 | 241 | 4.8 | 8.0 | 0.00 | 0.00 | 0.00 | 76 | 1012.8 |
| 20260509200828 | 27 | 295 | 4.8 | 17.7 | 0.00 | 0.00 | 0.00 | 80 | 1012.4 |
| 20260509200327 | 27 | 255 | 1.6 | 3.2 | 0.00 | 0.00 | 0.00 | 81 | 1012.4 |
| 20260509195827 | 27 | 72 | 1.6 | 3.2 | 0.00 | 0.00 | 0.00 | 80 | 1012.2 |
| 20260509195327 | 27 | 117 | 1.6 | 4.8 | 0.00 | 0.00 | 0.00 | 80 | 1012.0 |
| 20260509194827 | 27 | 102 | 3.2 | 3.2 | 0.00 | 0.00 | 0.00 | 79 | 1011.9 |